createdAt,value
2018-09-22T00:00:24.842Z,93.00
2018-09-22T00:01:24.856Z,93.29
2018-09-22T00:02:24.872Z,93.29
2018-09-22T00:03:24.890Z,93.29
2018-09-22T00:04:24.897Z,93.09
2018-09-22T00:05:24.917Z,93.52
2018-09-22T00:06:24.935Z,93.09
2018-09-22T00:07:24.999Z,93.00
2018-09-22T00:08:24.968Z,93.29
2018-09-22T00:09:24.987Z,93.19
2018-09-22T00:10:25.000Z,93.29
2018-09-22T00:11:25.012Z,93.57
2018-09-22T00:12:25.070Z,93.48
2018-09-22T00:13:25.054Z,93.48
2018-09-22T00:14:25.077Z,93.48
2018-09-22T00:15:25.085Z,93.29
2018-09-22T00:16:25.099Z,93.29
2018-09-22T00:17:25.162Z,93.57
2018-09-22T00:18:25.155Z,93.29
2018-09-22T00:19:25.144Z,93.38
2018-09-22T00:20:25.160Z,93.09
2018-09-22T00:21:25.176Z,94.34
2018-09-22T00:22:25.197Z,94.15
2018-09-22T00:23:25.216Z,94.54
2018-09-22T00:24:25.232Z,94.34
2018-09-22T00:25:25.240Z,94.06
2018-09-22T00:26:25.264Z,94.44
2018-09-22T00:27:25.286Z,94.30
2018-09-22T00:28:25.292Z,94.68
2018-09-22T00:29:25.365Z,94.97
2018-09-22T00:30:25.320Z,94.49
2018-09-22T00:31:25.349Z,95.07
2018-09-22T00:32:25.355Z,94.68
2018-09-22T00:33:25.379Z,94.30
2018-09-22T00:34:25.393Z,94.78
2018-09-22T00:35:25.409Z,94.49
2018-09-22T00:36:25.430Z,94.68
2018-09-22T00:37:25.445Z,94.68
2018-09-22T00:38:25.464Z,94.59
2018-09-22T00:39:25.475Z,94.68
2018-09-22T00:40:25.492Z,94.49
2018-09-22T00:41:25.510Z,94.49
2018-09-22T00:42:25.536Z,94.68
2018-09-22T00:43:25.535Z,94.68
2018-09-22T00:44:25.552Z,94.68
2018-09-22T00:45:25.562Z,94.20
2018-09-22T00:46:25.578Z,94.49
2018-09-22T00:47:25.600Z,94.49
2018-09-22T00:48:25.614Z,94.10
2018-09-22T00:49:25.635Z,94.68
2018-09-22T00:50:25.651Z,94.59
2018-09-22T00:51:25.669Z,94.30
2018-09-22T00:52:25.677Z,94.30
2018-09-22T00:53:25.698Z,94.78
2018-09-22T00:54:25.712Z,94.68
2018-09-22T00:55:25.733Z,94.49
2018-09-22T00:56:25.745Z,94.01
2018-09-22T00:57:25.767Z,94.49
2018-09-22T00:58:25.786Z,94.10
2018-09-22T00:59:25.797Z,95.17
2018-09-22T01:00:25.811Z,94.10
2018-09-22T01:01:25.833Z,95.17
2018-09-22T01:02:25.848Z,94.97
2018-09-22T01:03:25.862Z,94.92
2018-09-22T01:04:25.882Z,94.97
2018-09-22T01:05:25.952Z,95.17
2018-09-22T01:06:25.905Z,94.87
2018-09-22T01:07:25.940Z,94.87
2018-09-22T01:08:25.941Z,94.87
2018-09-22T01:09:25.963Z,95.17
2018-09-22T01:10:25.979Z,94.97
2018-09-22T01:11:26.046Z,94.87
2018-09-22T01:12:26.007Z,93.77
2018-09-22T01:13:26.027Z,94.97
2018-09-22T01:14:26.046Z,93.72
2018-09-22T01:15:26.065Z,94.73
2018-09-22T01:16:26.073Z,93.96
2018-09-22T01:17:26.090Z,95.17
2018-09-22T01:18:26.100Z,94.20
2018-09-22T01:19:26.122Z,95.07
2018-09-22T01:20:26.142Z,94.40
2018-09-22T01:21:26.159Z,93.96
2018-09-22T01:22:26.175Z,94.10
2018-09-22T01:23:26.191Z,95.02
2018-09-22T01:24:26.206Z,94.01
2018-09-22T01:25:26.242Z,94.10
2018-09-22T01:26:26.232Z,94.20
2018-09-22T01:27:26.250Z,94.10
2018-09-22T01:28:26.268Z,94.10
2018-09-22T01:29:26.294Z,94.01
2018-09-22T01:30:26.299Z,94.25
2018-09-22T01:31:26.325Z,94.25
2018-09-22T01:32:26.332Z,94.45
2018-09-22T01:33:26.349Z,93.96
2018-09-22T01:34:26.370Z,94.25
2018-09-22T01:35:26.380Z,94.25
2018-09-22T01:36:26.400Z,94.25
2018-09-22T01:37:26.446Z,93.87
2018-09-22T01:38:26.429Z,94.06
2018-09-22T01:39:26.446Z,94.15
2018-09-22T01:40:26.459Z,94.06
2018-09-22T01:41:26.481Z,93.87
2018-09-22T01:42:26.491Z,93.87
2018-09-22T01:43:26.560Z,94.25
2018-09-22T01:44:26.536Z,93.87
2018-09-22T01:45:26.539Z,94.15
2018-09-22T01:46:26.554Z,94.25
2018-09-22T01:47:26.578Z,94.15
2018-09-22T01:48:26.595Z,93.87
2018-09-22T01:49:26.613Z,93.77
2018-09-22T01:50:26.625Z,93.96
2018-09-22T01:51:26.638Z,93.96
2018-09-22T01:52:26.696Z,93.68
2018-09-22T01:53:26.675Z,93.87
2018-09-22T01:54:26.691Z,93.87
2018-09-22T01:55:26.713Z,93.68
2018-09-22T01:56:26.725Z,93.87
2018-09-22T01:57:26.738Z,94.06
2018-09-22T01:58:26.753Z,93.96
2018-09-22T01:59:26.776Z,94.06
2018-09-22T02:00:26.793Z,93.87
2018-09-22T02:01:26.820Z,94.06
2018-09-22T02:02:26.835Z,93.96
2018-09-22T02:03:26.837Z,94.06
2018-09-22T02:04:26.851Z,94.15
2018-09-22T02:05:26.867Z,94.06
2018-09-22T02:06:26.878Z,93.96
2018-09-22T02:07:26.894Z,93.87
2018-09-22T02:08:26.909Z,93.68
2018-09-22T02:09:26.930Z,94.15
2018-09-22T02:10:26.954Z,94.06
2018-09-22T02:11:26.967Z,94.15
2018-09-22T02:12:26.969Z,93.87
2018-09-22T02:13:26.993Z,94.15
2018-09-22T02:14:27.008Z,94.15
2018-09-22T02:15:27.032Z,94.45
2018-09-22T02:16:27.053Z,93.96
2018-09-22T02:17:27.057Z,94.45
2018-09-22T02:18:27.079Z,94.25
2018-09-22T02:19:27.096Z,94.06
2018-09-22T02:20:27.126Z,94.15
2018-09-22T02:21:27.128Z,94.06
2018-09-22T02:22:27.137Z,94.35
2018-09-22T02:23:27.156Z,93.96
2018-09-22T02:24:27.178Z,94.06
2018-09-22T02:25:27.188Z,94.35
2018-09-22T02:26:27.267Z,94.06
2018-09-22T02:27:27.228Z,93.96
2018-09-22T02:28:27.242Z,93.96
2018-09-22T02:29:27.252Z,94.25
2018-09-22T02:30:27.283Z,93.87
2018-09-22T02:31:27.290Z,94.06
2018-09-22T02:32:27.322Z,94.45
2018-09-22T02:33:27.313Z,94.06
2018-09-22T02:34:27.339Z,94.25
2018-09-22T02:35:27.360Z,93.96
2018-09-22T02:36:27.371Z,94.35
2018-09-22T02:37:27.381Z,94.06
2018-09-22T02:38:27.450Z,94.25
2018-09-22T02:39:27.424Z,94.15
2018-09-22T02:40:27.434Z,94.45
2018-09-22T02:41:27.471Z,94.35
2018-09-22T02:42:27.471Z,94.06
2018-09-22T02:43:27.481Z,94.06
2018-09-22T02:44:27.492Z,94.06
2018-09-22T02:45:27.517Z,94.06
2018-09-22T02:46:27.534Z,94.06
2018-09-22T02:47:27.549Z,94.15
2018-09-22T02:48:27.562Z,94.25
2018-09-22T02:49:27.581Z,94.06
2018-09-22T02:50:27.618Z,94.45
2018-09-22T02:51:27.610Z,94.35
2018-09-22T02:52:27.619Z,94.25
2018-09-22T02:53:27.642Z,94.45
2018-09-22T02:54:27.662Z,94.15
2018-09-22T02:55:27.666Z,94.25
2018-09-22T02:56:27.711Z,94.15
2018-09-22T02:57:27.707Z,94.45
2018-09-22T02:58:27.726Z,94.45
2018-09-22T02:59:27.742Z,94.45
2018-09-22T03:00:27.761Z,94.45
2018-09-22T03:01:27.772Z,94.15
2018-09-22T03:02:27.799Z,94.25
2018-09-22T03:03:27.813Z,94.45
2018-09-22T03:04:27.816Z,94.45
2018-09-22T03:05:27.848Z,94.25
2018-09-22T03:06:27.853Z,94.45
2018-09-22T03:07:27.874Z,94.45
2018-09-22T03:08:27.910Z,94.35
2018-09-22T03:09:27.895Z,94.54
2018-09-22T03:10:27.922Z,92.81
2018-09-22T03:11:27.932Z,93.00
2018-09-22T03:12:28.000Z,94.25
2018-09-22T03:13:27.959Z,93.00
2018-09-22T03:14:27.977Z,94.45
2018-09-22T03:15:28.042Z,94.54
2018-09-22T03:16:28.008Z,94.45
2018-09-22T03:17:28.029Z,93.10
2018-09-22T03:18:28.039Z,94.45
2018-09-22T03:19:28.062Z,94.45
2018-09-22T03:20:28.075Z,93.00
2018-09-22T03:21:28.097Z,92.81
2018-09-22T03:22:28.113Z,92.71
2018-09-22T03:23:28.125Z,94.25
2018-09-22T03:24:28.141Z,94.35
2018-09-22T03:25:28.159Z,94.25
2018-09-22T03:26:28.174Z,94.15
2018-09-22T03:27:28.270Z,94.45
2018-09-22T03:28:28.207Z,94.45
2018-09-22T03:29:28.219Z,94.45
2018-09-22T03:30:28.234Z,94.45
2018-09-22T03:31:28.269Z,94.54
2018-09-22T03:32:28.270Z,94.35
2018-09-22T03:33:28.294Z,94.25
2018-09-22T03:34:28.312Z,94.45
2018-09-22T03:35:28.350Z,94.45
2018-09-22T03:36:28.328Z,94.06
2018-09-22T03:37:28.352Z,94.25
2018-09-22T03:38:28.380Z,94.25
2018-09-22T03:39:28.393Z,94.64
2018-09-22T03:40:28.394Z,94.45
2018-09-22T03:41:28.409Z,94.45
2018-09-22T03:42:28.434Z,94.45
2018-09-22T03:43:28.447Z,94.35
2018-09-22T03:44:28.469Z,94.45
2018-09-22T03:45:28.478Z,93.96
2018-09-22T03:46:28.493Z,94.54
2018-09-22T03:47:28.508Z,94.64
2018-09-22T03:48:28.528Z,94.73
2018-09-22T03:49:28.543Z,94.06
2018-09-22T03:50:28.564Z,93.96
2018-09-22T03:51:28.664Z,94.15
2018-09-22T03:52:28.600Z,94.06
2018-09-22T03:53:28.612Z,94.73
2018-09-22T03:54:28.628Z,93.87
2018-09-22T03:55:28.639Z,93.96
2018-09-22T03:56:28.661Z,94.06
2018-09-22T03:57:28.702Z,93.87
2018-09-22T03:58:28.689Z,94.15
2018-09-22T03:59:28.704Z,93.87
2018-09-22T04:00:28.722Z,94.15
2018-09-22T04:01:28.741Z,93.91
2018-09-22T04:02:28.752Z,94.49
2018-09-22T04:03:28.811Z,94.25
2018-09-22T04:04:28.784Z,94.30
2018-09-22T04:05:28.807Z,94.25
2018-09-22T04:06:28.819Z,93.87
2018-09-22T04:07:28.837Z,94.15
2018-09-22T04:08:28.857Z,93.96
2018-09-22T04:09:28.919Z,94.45
2018-09-22T04:10:28.879Z,94.45
2018-09-22T04:11:28.905Z,94.45
2018-09-22T04:12:28.909Z,94.45
2018-09-22T04:13:28.928Z,94.35
2018-09-22T04:14:28.952Z,94.45
2018-09-22T04:15:29.058Z,94.64
2018-09-22T04:16:28.977Z,94.45
2018-09-22T04:17:29.000Z,94.25
2018-09-22T04:18:29.014Z,94.25
2018-09-22T04:19:29.030Z,94.35
2018-09-22T04:20:29.047Z,94.92
2018-09-22T04:21:29.138Z,94.73
2018-09-22T04:22:29.070Z,94.45
2018-09-22T04:23:29.104Z,94.92
2018-09-22T04:24:29.106Z,94.45
2018-09-22T04:25:29.120Z,94.25
2018-09-22T04:26:29.142Z,94.15
2018-09-22T04:27:29.186Z,94.92
2018-09-22T04:28:29.185Z,94.35
2018-09-22T04:29:29.192Z,94.73
2018-09-22T04:30:29.202Z,94.45
2018-09-22T04:31:29.222Z,94.45
2018-09-22T04:32:29.238Z,94.45
2018-09-22T04:33:29.340Z,94.45
2018-09-22T04:34:29.273Z,94.25
2018-09-22T04:35:29.288Z,94.54
2018-09-22T04:36:29.302Z,94.25
2018-09-22T04:37:29.334Z,94.45
2018-09-22T04:38:29.343Z,94.35
2018-09-22T04:39:29.358Z,94.64
2018-09-22T04:40:29.365Z,94.45
2018-09-22T04:41:29.390Z,94.45
2018-09-22T04:42:29.399Z,94.54
2018-09-22T04:43:29.414Z,94.15
2018-09-22T04:44:29.430Z,94.15
2018-09-22T04:45:29.443Z,94.25
2018-09-22T04:46:29.469Z,94.25
2018-09-22T04:47:29.483Z,94.25
2018-09-22T04:48:29.508Z,94.49
2018-09-22T04:49:29.509Z,94.15
2018-09-22T04:50:29.527Z,94.11
2018-09-22T04:51:29.541Z,94.01
2018-09-22T04:52:29.577Z,94.40
2018-09-22T04:53:29.585Z,93.91
2018-09-22T04:54:29.591Z,94.21
2018-09-22T04:55:29.609Z,93.87
2018-09-22T04:56:29.627Z,93.82
2018-09-22T04:57:29.642Z,94.40
2018-09-22T04:58:29.722Z,94.78
2018-09-22T04:59:29.667Z,94.01
2018-09-22T05:00:29.687Z,94.11
2018-09-22T05:01:29.704Z,94.01
2018-09-22T05:02:29.720Z,94.59
2018-09-22T05:03:29.737Z,94.73
2018-09-22T05:04:29.795Z,94.01
2018-09-22T05:05:29.765Z,94.11
2018-09-22T05:06:29.783Z,94.98
2018-09-22T05:07:29.805Z,95.12
2018-09-22T05:08:29.821Z,94.78
2018-09-22T05:09:29.834Z,93.82
2018-09-22T05:10:29.848Z,94.78
2018-09-22T05:11:29.863Z,94.98
2018-09-22T05:12:29.890Z,94.88
2018-09-22T05:13:29.896Z,94.49
2018-09-22T05:14:29.916Z,94.21
2018-09-22T05:15:29.935Z,94.59
2018-09-22T05:16:29.944Z,94.88
2018-09-22T05:17:29.956Z,94.88
2018-09-22T05:18:29.973Z,94.98
2018-09-22T05:19:29.987Z,94.40
2018-09-22T05:20:30.010Z,94.88
2018-09-22T05:21:30.024Z,94.88
2018-09-22T05:22:30.040Z,94.88
2018-09-22T05:23:30.060Z,94.68
2018-09-22T05:24:30.067Z,94.78
2018-09-22T05:25:30.095Z,94.68
2018-09-22T05:26:30.111Z,94.49
2018-09-22T05:27:30.127Z,94.78
2018-09-22T05:28:30.155Z,94.30
2018-09-22T05:29:30.153Z,93.91
2018-09-22T05:30:30.171Z,93.82
2018-09-22T05:31:30.195Z,94.11
2018-09-22T05:32:30.209Z,93.91
2018-09-22T05:33:30.285Z,93.63
2018-09-22T05:34:30.258Z,94.11
2018-09-22T05:35:30.307Z,94.01
2018-09-22T05:36:30.264Z,93.73
2018-09-22T05:37:30.286Z,93.82
2018-09-22T05:38:30.297Z,93.63
2018-09-22T05:39:30.315Z,93.82
2018-09-22T05:40:30.408Z,93.73
2018-09-22T05:41:30.346Z,93.73
2018-09-22T05:42:30.363Z,93.73
2018-09-22T05:43:30.378Z,93.82
2018-09-22T05:44:30.393Z,93.91
2018-09-22T05:45:30.413Z,93.91
2018-09-22T05:46:30.470Z,94.11
2018-09-22T05:47:30.453Z,94.01
2018-09-22T05:48:30.466Z,93.82
2018-09-22T05:49:30.472Z,94.11
2018-09-22T05:50:30.490Z,93.91
2018-09-22T05:51:30.518Z,94.11
2018-09-22T05:52:30.548Z,93.82
2018-09-22T05:53:30.540Z,93.63
2018-09-22T05:54:30.560Z,93.73
2018-09-22T05:55:30.570Z,93.63
2018-09-22T05:56:30.589Z,93.82
2018-09-22T05:57:30.598Z,93.63
2018-09-22T05:58:30.647Z,93.53
2018-09-22T05:59:30.651Z,93.82
2018-09-22T06:00:30.648Z,92.57
2018-09-22T06:01:30.668Z,93.91
2018-09-22T06:02:30.676Z,93.91
2018-09-22T06:03:30.724Z,93.91
2018-09-22T06:04:30.804Z,93.91
2018-09-22T06:05:30.730Z,92.57
2018-09-22T06:06:30.741Z,92.76
2018-09-22T06:07:30.769Z,92.67
2018-09-22T06:08:30.787Z,92.57
2018-09-22T06:09:30.811Z,92.67
2018-09-22T06:10:30.826Z,92.76
2018-09-22T06:11:30.830Z,92.57
2018-09-22T06:12:30.843Z,92.57
2018-09-22T06:13:30.863Z,92.57
2018-09-22T06:14:30.876Z,92.57
2018-09-22T06:15:30.896Z,93.05
2018-09-22T06:16:30.908Z,92.86
2018-09-22T06:17:30.926Z,92.86
2018-09-22T06:18:30.950Z,92.67
2018-09-22T06:19:30.958Z,92.86
2018-09-22T06:20:30.969Z,93.05
2018-09-22T06:21:30.985Z,93.15
2018-09-22T06:22:31.004Z,93.05
2018-09-22T06:23:31.095Z,93.05
2018-09-22T06:24:31.043Z,93.05
2018-09-22T06:25:31.055Z,93.15
2018-09-22T06:26:31.072Z,93.05
2018-09-22T06:27:31.081Z,93.24
2018-09-22T06:28:31.102Z,93.05
2018-09-22T06:29:31.114Z,93.15
2018-09-22T06:30:31.126Z,92.96
2018-09-22T06:31:31.150Z,93.53
2018-09-22T06:32:31.169Z,93.34
2018-09-22T06:33:31.183Z,92.76
2018-09-22T06:34:31.201Z,93.05
2018-09-22T06:35:31.221Z,92.67
2018-09-22T06:36:31.233Z,93.05
2018-09-22T06:37:31.335Z,92.47
2018-09-22T06:38:31.260Z,93.05
2018-09-22T06:39:31.278Z,92.86
2018-09-22T06:40:31.296Z,92.76
2018-09-22T06:41:31.315Z,92.96
2018-09-22T06:42:31.340Z,93.15
2018-09-22T06:43:31.350Z,92.96
2018-09-22T06:44:31.363Z,92.96
2018-09-22T06:45:31.376Z,93.05
2018-09-22T06:46:31.392Z,92.96
2018-09-22T06:47:31.458Z,93.05
2018-09-22T06:48:31.425Z,92.29
2018-09-22T06:49:31.437Z,92.09
2018-09-22T06:50:31.469Z,91.90
2018-09-22T06:51:31.476Z,92.29
2018-09-22T06:52:31.489Z,92.23
2018-09-22T06:53:31.583Z,92.43
2018-09-22T06:54:31.518Z,92.52
2018-09-22T06:55:31.542Z,92.33
2018-09-22T06:56:31.554Z,92.52
2018-09-22T06:57:31.567Z,92.52
2018-09-22T06:58:31.587Z,92.13
2018-09-22T06:59:31.627Z,92.43
2018-09-22T07:00:31.623Z,92.52
2018-09-22T07:01:31.636Z,92.52
2018-09-22T07:02:31.661Z,92.33
2018-09-22T07:03:31.666Z,92.33
2018-09-22T07:04:31.679Z,92.23
2018-09-22T07:05:31.699Z,92.33
2018-09-22T07:06:31.866Z,92.33
2018-09-22T07:07:31.738Z,92.33
2018-09-22T07:08:31.745Z,92.33
2018-09-22T07:09:31.764Z,92.13
2018-09-22T07:10:31.783Z,92.71
2018-09-22T07:11:31.829Z,92.33
2018-09-22T07:12:31.821Z,92.38
2018-09-22T07:13:31.821Z,92.52
2018-09-22T07:14:31.845Z,92.13
2018-09-22T07:15:31.862Z,92.52
2018-09-22T07:16:31.877Z,92.38
2018-09-22T07:17:31.893Z,92.85
2018-09-22T07:18:31.911Z,92.38
2018-09-22T07:19:32.000Z,92.38
2018-09-22T07:20:31.941Z,92.71
2018-09-22T07:21:31.964Z,92.94
2018-09-22T07:22:31.977Z,92.94
2018-09-22T07:23:31.992Z,93.47
2018-09-22T07:24:32.002Z,93.62
2018-09-22T07:25:32.113Z,92.65
2018-09-22T07:26:32.044Z,92.41
2018-09-22T07:27:32.055Z,92.11
2018-09-22T07:28:32.072Z,92.07
2018-09-22T07:29:32.108Z,92.16
2018-09-22T07:30:32.102Z,91.97
2018-09-22T07:31:32.120Z,91.82
2018-09-22T07:32:32.152Z,92.06
2018-09-22T07:33:32.163Z,90.61
2018-09-22T07:34:32.172Z,90.75
2018-09-22T07:35:32.200Z,90.70
2018-09-22T07:36:32.221Z,89.09
2018-09-22T07:37:32.239Z,89.29
2018-09-22T07:38:32.252Z,88.71
2018-09-22T07:39:32.379Z,88.85
2018-09-22T07:40:32.285Z,88.02
2018-09-22T07:41:32.294Z,87.38
2018-09-22T07:42:32.318Z,86.86
2018-09-22T07:43:32.340Z,86.57
2018-09-22T07:44:32.357Z,86.80
2018-09-22T07:45:32.385Z,86.66
2018-09-22T07:46:32.391Z,86.41
2018-09-22T07:47:32.410Z,85.64
2018-09-22T07:48:32.428Z,86.47
2018-09-22T07:49:32.450Z,86.47
2018-09-22T07:50:32.468Z,86.27
2018-09-22T07:51:32.489Z,85.35
2018-09-22T07:52:32.497Z,85.68
2018-09-22T07:53:32.527Z,85.44
2018-09-22T07:54:32.542Z,85.54
2018-09-22T07:55:32.565Z,85.21
2018-09-22T07:56:32.583Z,86.37
2018-09-22T07:57:32.604Z,85.69
2018-09-22T07:58:32.631Z,86.82
2018-09-22T07:59:32.641Z,86.95
2018-09-22T08:00:32.803Z,85.54
2018-09-22T08:01:32.673Z,84.52
2018-09-22T08:02:32.695Z,83.78
2018-09-22T08:03:32.714Z,84.09
2018-09-22T08:04:32.729Z,84.52
2018-09-22T08:05:32.760Z,83.78
2018-09-22T08:06:32.780Z,83.39
2018-09-22T08:07:32.795Z,82.85
2018-09-22T08:08:32.817Z,81.84
2018-09-22T08:09:32.827Z,82.46
2018-09-22T08:10:32.856Z,82.17
2018-09-22T08:11:32.876Z,82.07
2018-09-22T08:12:32.886Z,81.78
2018-09-22T08:13:32.913Z,82.13
2018-09-22T08:14:32.930Z,82.52
2018-09-22T08:15:32.951Z,82.07
2018-09-22T08:16:32.983Z,82.17
2018-09-22T08:17:32.994Z,80.85
2018-09-22T08:18:33.052Z,79.78
2018-09-22T08:19:33.024Z,79.82
2018-09-22T08:20:33.056Z,79.82
2018-09-22T08:21:33.071Z,79.10
2018-09-22T08:22:33.089Z,79.63
2018-09-22T08:23:33.106Z,79.18
2018-09-22T08:24:33.119Z,78.59
2018-09-22T08:25:33.149Z,78.75
2018-09-22T08:26:33.168Z,79.14
2018-09-22T08:27:33.188Z,78.59
2018-09-22T08:28:33.212Z,78.99
2018-09-22T08:29:33.231Z,78.59
2018-09-22T08:30:33.246Z,78.59
2018-09-22T08:31:33.272Z,78.05
2018-09-22T08:32:33.288Z,77.08
2018-09-22T08:33:33.305Z,77.14
2018-09-22T08:34:33.332Z,78.05
2018-09-22T08:35:33.349Z,76.24
2018-09-22T08:36:33.535Z,74.91
2018-09-22T08:37:33.388Z,73.74
2018-09-22T08:38:33.409Z,74.23
2018-09-22T08:39:33.438Z,73.74
2018-09-22T08:40:33.452Z,75.20
2018-09-22T08:41:33.472Z,74.13
2018-09-22T08:42:33.492Z,73.45
2018-09-22T08:43:33.510Z,74.68
2018-09-22T08:44:33.535Z,74.43
2018-09-22T08:45:33.557Z,72.57
2018-09-22T08:46:33.579Z,72.57
2018-09-22T08:47:33.599Z,74.65
2018-09-22T08:48:33.626Z,75.32
2018-09-22T08:49:33.671Z,75.07
2018-09-22T08:50:33.661Z,73.71
2018-09-22T08:51:33.682Z,73.74
2018-09-22T08:52:33.703Z,73.35
2018-09-22T08:53:33.720Z,73.51
2018-09-22T08:54:33.745Z,73.25
2018-09-22T08:55:33.763Z,72.77
2018-09-22T08:56:33.792Z,72.41
2018-09-22T08:57:33.813Z,71.83
2018-09-22T08:58:33.831Z,72.54
2018-09-22T08:59:33.844Z,74.00
2018-09-22T09:00:33.988Z,74.23
2018-09-22T09:01:33.888Z,72.19
2018-09-22T09:02:33.915Z,73.74
2018-09-22T09:03:33.932Z,73.80
2018-09-22T09:04:33.955Z,73.35
2018-09-22T09:05:33.973Z,71.89
2018-09-22T09:06:34.032Z,72.67
2018-09-22T09:07:34.010Z,72.77
2018-09-22T09:08:34.037Z,71.11
2018-09-22T09:09:34.066Z,70.76
2018-09-22T09:10:34.089Z,69.68
2018-09-22T09:11:34.203Z,71.28
2018-09-22T09:12:34.134Z,68.59
2018-09-22T09:13:34.181Z,68.29
2018-09-22T09:14:34.185Z,67.93
2018-09-22T09:15:34.194Z,65.88
2018-09-22T09:16:34.205Z,66.50
2018-09-22T09:17:34.230Z,66.27
2018-09-22T09:18:34.257Z,65.75
2018-09-22T09:19:34.278Z,66.80
2018-09-22T09:20:34.295Z,65.82
2018-09-22T09:21:34.317Z,63.77
2018-09-22T09:22:34.343Z,65.72
2018-09-22T09:23:34.367Z,63.83
2018-09-22T09:24:34.379Z,66.05
2018-09-22T09:25:34.405Z,64.71
2018-09-22T09:26:34.422Z,63.44
2018-09-22T09:27:34.527Z,65.14
2018-09-22T09:28:34.470Z,64.06
2018-09-22T09:29:34.500Z,64.06
2018-09-22T09:30:34.524Z,63.96
2018-09-22T09:31:34.543Z,64.26
2018-09-22T09:32:34.558Z,63.38
2018-09-22T09:33:34.574Z,62.70
2018-09-22T09:34:34.613Z,64.00
2018-09-22T09:35:34.627Z,60.50
2018-09-22T09:36:34.644Z,60.89
2018-09-22T09:37:34.717Z,61.20
2018-09-22T09:38:34.698Z,62.89
2018-09-22T09:39:34.708Z,61.13
2018-09-22T09:40:34.739Z,61.65
2018-09-22T09:41:34.764Z,60.35
2018-09-22T09:42:34.782Z,60.28
2018-09-22T09:43:34.857Z,59.96
2018-09-22T09:44:34.823Z,59.92
2018-09-22T09:45:34.846Z,58.55
2018-09-22T09:46:34.869Z,57.53
2018-09-22T09:47:34.891Z,55.67
2018-09-22T09:48:34.924Z,56.16
2018-09-22T09:49:34.944Z,56.09
2018-09-22T09:50:34.966Z,55.11
2018-09-22T09:51:34.981Z,55.47
2018-09-22T09:52:35.006Z,56.65
2018-09-22T09:53:35.026Z,56.04
2018-09-22T09:54:35.122Z,57.93
2018-09-22T09:55:35.069Z,57.48
2018-09-22T09:56:35.096Z,57.87
2018-09-22T09:57:35.120Z,58.02
2018-09-22T09:58:35.144Z,56.58
2018-09-22T09:59:35.161Z,54.91
2018-09-22T10:00:35.193Z,53.77
2018-09-22T10:01:35.205Z,52.23
2018-09-22T10:02:35.246Z,54.72
2018-09-22T10:03:35.252Z,52.69
2018-09-22T10:04:35.348Z,54.06
2018-09-22T10:05:35.302Z,52.81
2018-09-22T10:06:35.328Z,52.23
2018-09-22T10:07:35.343Z,52.13
2018-09-22T10:08:35.434Z,52.25
2018-09-22T10:09:35.390Z,52.64
2018-09-22T10:10:35.421Z,52.18
2018-09-22T10:11:35.440Z,50.32
2018-09-22T10:12:35.465Z,51.07
2018-09-22T10:13:35.487Z,50.22
2018-09-22T10:14:35.534Z,50.42
2018-09-22T10:15:35.534Z,49.92
2018-09-22T10:16:35.556Z,49.75
2018-09-22T10:17:35.579Z,48.94
2018-09-22T10:18:35.597Z,48.96
2018-09-22T10:19:35.629Z,48.96
2018-09-22T10:20:35.648Z,48.96
2018-09-22T10:21:35.667Z,48.50
2018-09-22T10:22:35.691Z,47.37
2018-09-22T10:23:35.714Z,48.77
2018-09-22T10:24:35.742Z,47.81
2018-09-22T10:25:35.763Z,46.41
2018-09-22T10:26:35.859Z,49.21
2018-09-22T10:27:35.815Z,49.02
2018-09-22T10:28:35.867Z,47.86
2018-09-22T10:29:35.857Z,48.55
2018-09-22T10:30:35.886Z,47.57
2018-09-22T10:31:35.906Z,48.77
2018-09-22T10:32:35.930Z,48.94
2018-09-22T10:33:35.959Z,47.79
2018-09-22T10:34:35.977Z,44.47
2018-09-22T10:35:36.007Z,44.59
2018-09-22T10:36:36.030Z,44.01
2018-09-22T10:37:36.056Z,45.77
2018-09-22T10:38:36.070Z,44.08
2018-09-22T10:39:36.140Z,45.85
2018-09-22T10:40:36.117Z,44.01
2018-09-22T10:41:36.152Z,43.63
2018-09-22T10:42:36.166Z,43.24
2018-09-22T10:43:36.191Z,43.06
2018-09-22T10:44:36.217Z,40.31
2018-09-22T10:45:36.242Z,40.58
2018-09-22T10:46:36.260Z,41.96
2018-09-22T10:47:36.295Z,41.67
2018-09-22T10:48:36.318Z,41.56
2018-09-22T10:49:36.342Z,41.17
2018-09-22T10:50:36.371Z,41.88
2018-09-22T10:51:36.475Z,41.88
2018-09-22T10:52:36.495Z,41.51
2018-09-22T10:53:36.444Z,41.22
2018-09-22T10:54:36.450Z,41.41
2018-09-22T10:55:36.535Z,40.03
2018-09-22T10:56:36.513Z,41.98
2018-09-22T10:57:36.524Z,40.19
2018-09-22T10:58:36.558Z,39.92
2018-09-22T10:59:36.582Z,39.23
2018-09-22T11:00:36.608Z,39.62
2018-09-22T11:01:36.631Z,39.15
2018-09-22T11:02:36.648Z,38.38
2018-09-22T11:03:36.668Z,37.69
2018-09-22T11:04:36.705Z,37.77
2018-09-22T11:05:36.728Z,37.89
2018-09-22T11:06:36.746Z,38.09
2018-09-22T11:07:36.781Z,38.56
2018-09-22T11:08:36.813Z,38.38
2018-09-22T11:09:36.822Z,36.71
2018-09-22T11:10:36.849Z,38.68
2018-09-22T11:11:36.878Z,37.02
2018-09-22T11:12:36.918Z,36.04
2018-09-22T11:13:36.933Z,35.53
2018-09-22T11:14:36.946Z,35.23
2018-09-22T11:15:36.986Z,37.72
2018-09-22T11:16:36.991Z,36.07
2018-09-22T11:17:37.024Z,36.87
2018-09-22T11:18:37.048Z,36.18
2018-09-22T11:19:37.076Z,36.10
2018-09-22T11:20:37.092Z,36.04
2018-09-22T11:21:37.121Z,33.49
2018-09-22T11:22:37.145Z,33.11
2018-09-22T11:23:37.171Z,32.21
2018-09-22T11:24:37.202Z,33.64
2018-09-22T11:25:37.213Z,34.05
2018-09-22T11:26:37.242Z,35.21
2018-09-22T11:27:37.268Z,35.43
2018-09-22T11:28:37.293Z,35.72
2018-09-22T11:29:37.317Z,35.46
2018-09-22T11:30:37.337Z,33.79
2018-09-22T11:31:37.377Z,33.39
2018-09-22T11:32:37.437Z,35.07
2018-09-22T11:33:37.420Z,33.91
2018-09-22T11:34:37.484Z,34.89
2018-09-22T11:35:37.462Z,33.92
2018-09-22T11:36:37.492Z,32.73
2018-09-22T11:37:37.510Z,32.16
2018-09-22T11:38:37.551Z,32.62
2018-09-22T11:39:37.563Z,33.39
2018-09-22T11:40:37.608Z,33.87
2018-09-22T11:41:37.621Z,34.00
2018-09-22T11:42:37.640Z,33.62
2018-09-22T11:43:37.665Z,32.47
2018-09-22T11:44:37.691Z,32.28
2018-09-22T11:45:37.708Z,31.99
2018-09-22T11:46:37.737Z,32.50
2018-09-22T11:47:37.766Z,32.50
2018-09-22T11:48:37.783Z,32.67
2018-09-22T11:49:37.823Z,33.62
2018-09-22T11:50:37.838Z,33.72
2018-09-22T11:51:37.875Z,34.31
2018-09-22T11:52:37.891Z,34.44
2018-09-22T11:53:37.910Z,33.98
2018-09-22T11:54:37.942Z,32.53
2018-09-22T11:55:37.970Z,33.72
2018-09-22T11:56:37.984Z,33.29
2018-09-22T11:57:38.013Z,35.93
2018-09-22T11:58:38.036Z,35.75
2018-09-22T11:59:38.091Z,33.90
2018-09-22T12:00:38.092Z,34.01
2018-09-22T12:01:38.120Z,34.79
2018-09-22T12:02:38.137Z,35.86
2018-09-22T12:03:38.175Z,35.07
2018-09-22T12:04:38.199Z,34.15
2018-09-22T12:05:38.215Z,36.29
2018-09-22T12:06:38.367Z,36.50
2018-09-22T12:07:38.265Z,36.42
2018-09-22T12:08:38.294Z,34.56
2018-09-22T12:09:38.330Z,33.87
2018-09-22T12:10:38.349Z,33.49
2018-09-22T12:11:38.375Z,33.39
2018-09-22T12:12:38.401Z,33.59
2018-09-22T12:13:38.423Z,33.49
2018-09-22T12:14:38.452Z,33.79
2018-09-22T12:15:38.484Z,36.36
2018-09-22T12:16:38.513Z,35.50
2018-09-22T12:17:38.526Z,33.98
2018-09-22T12:18:38.544Z,34.95
2018-09-22T12:19:38.572Z,34.97
2018-09-22T12:20:38.602Z,34.31
2018-09-22T12:21:38.627Z,34.43
2018-09-22T12:22:38.661Z,33.95
2018-09-22T12:23:38.686Z,33.92
2018-09-22T12:24:38.712Z,34.25
2018-09-22T12:25:38.942Z,32.68
2018-09-22T12:26:38.960Z,31.42
2018-09-22T12:27:38.792Z,31.02
2018-09-22T12:28:38.813Z,31.52
2018-09-22T12:29:38.840Z,30.74
2018-09-22T12:30:38.864Z,31.52
2018-09-22T12:31:38.886Z,31.23
2018-09-22T12:32:38.910Z,30.53
2018-09-22T12:33:38.957Z,32.63
2018-09-22T12:34:38.972Z,31.62
2018-09-22T12:35:38.993Z,30.83
2018-09-22T12:36:39.025Z,30.84
2018-09-22T12:37:39.043Z,30.13
2018-09-22T12:38:39.080Z,29.94
2018-09-22T12:39:39.103Z,31.36
2018-09-22T12:40:39.127Z,32.71
2018-09-22T12:41:39.205Z,32.34
2018-09-22T12:42:39.180Z,33.44
2018-09-22T12:43:39.210Z,31.48
2018-09-22T12:44:39.226Z,31.08
2018-09-22T12:45:39.254Z,30.60
2018-09-22T12:46:39.292Z,30.80
2018-09-22T12:47:39.338Z,28.92
2018-09-22T12:48:39.341Z,31.25
2018-09-22T12:49:39.365Z,31.15
2018-09-22T12:50:39.394Z,30.08
2018-09-22T12:51:39.425Z,30.49
2018-09-22T12:52:39.443Z,30.00